Time;durP1;ratioP1;P1;durP2;ratioP2;P2;SDS_P1;SDS_P2;PMS_P1;PMS_P2;Temp;Humidity;BMP_temperature;BMP_pressure;BME280_temperature;BME280_humidity;BME280_pressure;Samples;Min_cycle;Max_cycle;Signal;HPM_P1;HPM_P2
2024/01/27 00:00:02;;;;;;;2.85;1.00;;;;;;;;;;5051458;28;20059;-61
2024/01/27 00:02:32;;;;;;;1.00;0.90;;;;;;;;;;5069707;28;20302;-61
2024/01/27 00:05:01;;;;;;;2.70;1.60;;;;;;;;;;5069676;28;20064;-68
2024/01/27 00:07:29;;;;;;;0.73;0.70;;;;;;;;;;5069673;28;20500;-61
2024/01/27 00:09:59;;;;;;;0.93;0.82;;;;;;;;;;5068504;28;20052;-62
2024/01/27 00:12:27;;;;;;;1.58;0.93;;;;;;;;;;5069591;28;20052;-67
2024/01/27 00:14:55;;;;;;;1.70;1.00;;;;;;;;;;5069309;28;20048;-69
2024/01/27 00:17:26;;;;;;;1.38;0.90;;;;;;;;;;5070352;28;20076;-60
2024/01/27 00:19:56;;;;;;;3.03;0.88;;;;;;;;;;5070382;28;20473;-61
2024/01/27 00:22:24;;;;;;;0.80;0.80;;;;;;;;;;5071270;28;20127;-65
2024/01/27 00:24:53;;;;;;;2.30;0.90;;;;;;;;;;5062770;28;20084;-66
2024/01/27 00:27:21;;;;;;;1.55;0.88;;;;;;;;;;5067235;28;20072;-64
2024/01/27 00:29:50;;;;;;;0.90;0.88;;;;;;;;;;5069767;28;20378;-61
2024/01/27 00:32:18;;;;;;;2.00;0.80;;;;;;;;;;5068543;28;20055;-60
2024/01/27 00:34:47;;;;;;;1.48;1.17;;;;;;;;;;5067843;28;20052;-64
2024/01/27 00:37:17;;;;;;;1.58;1.02;;;;;;;;;;5068675;28;20530;-72
2024/01/27 00:39:46;;;;;;;2.83;1.10;;;;;;;;;;5068699;28;20045;-67
2024/01/27 00:42:14;;;;;;;1.35;0.95;;;;;;;;;;5065000;28;20048;-61
2024/01/27 00:44:43;;;;;;;2.60;0.85;;;;;;;;;;5067562;28;20045;-60
2024/01/27 00:47:12;;;;;;;2.05;0.90;;;;;;;;;;5069990;28;20140;-60
2024/01/27 00:49:40;;;;;;;1.08;0.85;;;;;;;;;;5069089;28;20110;-61
2024/01/27 00:52:08;;;;;;;0.93;0.70;;;;;;;;;;5069871;28;20055;-61
2024/01/27 00:54:38;;;;;;;3.28;1.00;;;;;;;;;;5069503;28;20561;-62
2024/01/27 00:57:07;;;;;;;2.00;1.35;;;;;;;;;;5069577;28;20048;-63
2024/01/27 00:59:35;;;;;;;1.65;1.08;;;;;;;;;;5069235;28;20044;-60
2024/01/27 01:02:04;;;;;;;1.88;0.93;;;;;;;;;;5069413;28;20079;-64
2024/01/27 01:04:32;;;;;;;4.53;0.98;;;;;;;;;;5062954;28;20134;-62
2024/01/27 01:07:00;;;;;;;3.72;1.70;;;;;;;;;;5067326;28;20072;-61
2024/01/27 01:09:29;;;;;;;3.85;1.10;;;;;;;;;;5069533;28;20136;-60
2024/01/27 01:11:59;;;;;;;1.73;1.10;;;;;;;;;;5069351;28;20044;-65
2024/01/27 01:14:27;;;;;;;1.63;1.05;;;;;;;;;;5068814;28;20048;-65
2024/01/27 01:16:56;;;;;;;1.85;1.50;;;;;;;;;;5067701;28;20094;-65
2024/01/27 01:19:24;;;;;;;3.25;1.00;;;;;;;;;;5054788;28;20106;-61
2024/01/27 01:21:53;;;;;;;2.05;1.02;;;;;;;;;;5057027;28;20048;-65
2024/01/27 01:24:21;;;;;;;1.27;1.05;;;;;;;;;;5069202;28;20040;-61
2024/01/27 01:26:50;;;;;;;3.00;1.20;;;;;;;;;;5065192;28;20131;-65
2024/01/27 01:29:19;;;;;;;1.75;0.98;;;;;;;;;;5067254;28;20044;-68
2024/01/27 01:31:48;;;;;;;4.78;1.25;;;;;;;;;;5068383;28;20036;-68
2024/01/27 01:34:17;;;;;;;2.03;1.27;;;;;;;;;;5068684;28;20084;-64
2024/01/27 01:36:45;;;;;;;1.30;1.00;;;;;;;;;;5069040;28;20070;-62
2024/01/27 01:39:14;;;;;;;2.20;1.10;;;;;;;;;;5058987;28;20098;-63
2024/01/27 01:41:42;;;;;;;1.27;1.00;;;;;;;;;;5063515;28;20070;-63
2024/01/27 01:44:11;;;;;;;1.42;1.10;;;;;;;;;;5069128;28;20105;-64
2024/01/27 01:46:41;;;;;;;1.38;1.23;;;;;;;;;;5066890;28;20071;-64
2024/01/27 01:49:09;;;;;;;1.80;1.10;;;;;;;;;;5065241;28;20044;-66
2024/01/27 01:51:38;;;;;;;4.30;1.30;;;;;;;;;;5068429;28;20451;-66
2024/01/27 01:54:06;;;;;;;2.92;1.50;;;;;;;;;;5062517;28;20049;-65
2024/01/27 01:56:35;;;;;;;2.90;1.58;;;;;;;;;;5064646;28;20432;-63
2024/01/27 01:59:04;;;;;;;3.78;1.30;;;;;;;;;;5068194;28;20068;-65
2024/01/27 02:01:32;;;;;;;1.85;1.25;;;;;;;;;;5069892;28;20477;-61
2024/01/27 02:04:02;;;;;;;2.53;1.38;;;;;;;;;;5072138;28;20041;-64
2024/01/27 02:06:30;;;;;;;2.67;1.27;;;;;;;;;;5071342;28;20975;-64
2024/01/27 02:08:59;;;;;;;1.88;1.05;;;;;;;;;;5072110;28;20371;-68
2024/01/27 02:11:27;;;;;;;2.97;1.35;;;;;;;;;;5072367;28;20056;-62
2024/01/27 02:13:56;;;;;;;2.85;1.17;;;;;;;;;;5071641;28;20084;-61
2024/01/27 02:16:24;;;;;;;5.38;1.55;;;;;;;;;;5073391;28;20065;-63
2024/01/27 02:18:52;;;;;;;3.53;1.08;;;;;;;;;;5065334;28;20087;-62
2024/01/27 02:21:23;;;;;;;1.38;1.02;;;;;;;;;;5072648;28;20075;-65
2024/01/27 02:23:51;;;;;;;1.65;1.13;;;;;;;;;;5068512;28;20165;-68
2024/01/27 02:26:21;;;;;;;2.03;1.08;;;;;;;;;;5070550;28;20044;-60
2024/01/27 02:28:49;;;;;;;1.73;1.20;;;;;;;;;;5072214;28;20048;-68
2024/01/27 02:31:18;;;;;;;3.80;1.48;;;;;;;;;;5065944;28;20049;-64
2024/01/27 02:33:46;;;;;;;4.32;1.30;;;;;;;;;;5072147;28;20053;-69
2024/01/27 02:36:15;;;;;;;5.55;1.10;;;;;;;;;;5072224;28;20533;-61
2024/01/27 02:38:43;;;;;;;1.27;1.08;;;;;;;;;;5072067;28;20157;-61
2024/01/27 02:41:11;;;;;;;1.30;1.10;;;;;;;;;;5070807;28;20405;-65
2024/01/27 02:43:41;;;;;;;3.65;1.38;;;;;;;;;;5071680;28;20556;-65
2024/01/27 02:46:11;;;;;;;3.95;1.67;;;;;;;;;;5071475;28;20079;-65
2024/01/27 02:48:42;;;;;;;1.67;1.58;;;;;;;;;;5071383;28;20057;-61
2024/01/27 02:51:10;;;;;;;1.77;1.08;;;;;;;;;;5071255;28;20044;-62
2024/01/27 02:53:39;;;;;;;1.75;1.10;;;;;;;;;;5070387;28;20076;-61
2024/01/27 02:56:08;;;;;;;1.40;1.10;;;;;;;;;;5071273;28;20048;-64
2024/01/27 02:58:37;;;;;;;1.77;1.30;;;;;;;;;;5070765;28;20493;-66
2024/01/27 03:01:07;;;;;;;5.55;1.45;;;;;;;;;;5070290;28;20055;-62
2024/01/27 03:03:35;;;;;;;6.78;1.52;;;;;;;;;;5071788;28;20052;-61
2024/01/27 03:06:04;;;;;;;3.33;1.35;;;;;;;;;;5071792;28;20048;-64
2024/01/27 03:08:33;;;;;;;1.40;1.20;;;;;;;;;;5070823;28;20071;-65
2024/01/27 03:11:01;;;;;;;2.38;1.30;;;;;;;;;;5070998;28;20067;-63
2024/01/27 03:13:30;;;;;;;2.53;1.10;;;;;;;;;;5068756;28;20041;-63
2024/01/27 03:15:58;;;;;;;1.80;1.20;;;;;;;;;;5067945;28;20048;-65
2024/01/27 03:18:28;;;;;;;1.23;0.98;;;;;;;;;;5071062;28;20118;-69
2024/01/27 03:20:57;;;;;;;2.15;1.25;;;;;;;;;;5070491;28;20063;-67
2024/01/27 03:23:25;;;;;;;2.28;1.25;;;;;;;;;;5071073;28;20056;-65
2024/01/27 03:25:54;;;;;;;1.42;1.17;;;;;;;;;;5067286;28;20106;-61
2024/01/27 03:28:22;;;;;;;2.90;1.40;;;;;;;;;;5070509;28;20493;-61
2024/01/27 03:30:51;;;;;;;1.23;1.00;;;;;;;;;;5068118;28;20102;-63
2024/01/27 03:33:19;;;;;;;1.65;1.00;;;;;;;;;;5071136;28;20559;-63
2024/01/27 03:35:49;;;;;;;1.70;1.10;;;;;;;;;;5071332;28;20127;-65
2024/01/27 03:38:17;;;;;;;4.82;1.48;;;;;;;;;;5065886;28;20045;-66
2024/01/27 03:40:46;;;;;;;1.40;1.23;;;;;;;;;;5071511;28;20106;-61
2024/01/27 03:43:14;;;;;;;1.20;1.02;;;;;;;;;;5071542;28;20109;-61
2024/01/27 03:45:42;;;;;;;1.00;0.90;;;;;;;;;;5070341;28;20045;-66
2024/01/27 03:48:11;;;;;;;5.10;1.33;;;;;;;;;;5069095;28;20044;-64
2024/01/27 03:50:39;;;;;;;4.18;1.17;;;;;;;;;;5069854;28;20055;-62
2024/01/27 03:53:09;;;;;;;1.88;1.40;;;;;;;;;;5071208;28;20531;-61
2024/01/27 03:55:37;;;;;;;3.50;1.20;;;;;;;;;;5070639;28;20137;-62
2024/01/27 03:58:06;;;;;;;1.20;1.00;;;;;;;;;;5069398;28;20090;-64
2024/01/27 04:00:34;;;;;;;2.28;1.27;;;;;;;;;;5066107;28;20084;-65
2024/01/27 04:03:03;;;;;;;6.65;1.10;;;;;;;;;;5065615;28;20044;-61
2024/01/27 04:05:32;;;;;;;2.50;1.45;;;;;;;;;;5070588;28;20040;-60
2024/01/27 04:08:00;;;;;;;1.83;1.10;;;;;;;;;;5070086;28;20041;-60
2024/01/27 04:10:30;;;;;;;3.13;1.00;;;;;;;;;;5066418;28;20053;-62
2024/01/27 04:12:58;;;;;;;3.50;0.95;;;;;;;;;;5069800;28;20036;-64
2024/01/27 04:15:26;;;;;;;2.47;1.08;;;;;;;;;;5069534;28;20056;-63
2024/01/27 04:17:55;;;;;;;4.40;0.90;;;;;;;;;;5069047;28;20125;-61
2024/01/27 04:20:23;;;;;;;2.03;1.20;;;;;;;;;;5069933;28;20064;-61
2024/01/27 04:22:52;;;;;;;1.67;1.30;;;;;;;;;;5069566;28;20048;-69
2024/01/27 04:25:20;;;;;;;2.47;1.25;;;;;;;;;;5068263;28;20049;-63
2024/01/27 04:27:50;;;;;;;4.03;1.23;;;;;;;;;;5067912;28;20398;-62
2024/01/27 04:30:18;;;;;;;3.25;1.25;;;;;;;;;;5070094;28;20099;-61
2024/01/27 04:32:49;;;;;;;3.92;1.15;;;;;;;;;;5070329;28;20056;-62
2024/01/27 04:35:17;;;;;;;1.38;1.02;;;;;;;;;;5069044;28;20064;-66
2024/01/27 04:37:45;;;;;;;1.45;1.05;;;;;;;;;;5069358;28;20048;-64
2024/01/27 04:40:14;;;;;;;2.00;1.08;;;;;;;;;;5068561;28;20098;-64
2024/01/27 04:42:42;;;;;;;2.92;1.02;;;;;;;;;;5062580;28;20559;-61
2024/01/27 04:45:16;;;;;;;4.85;1.27;;;;;;;;;;5067826;28;20048;-61
2024/01/27 04:47:44;;;;;;;1.73;1.30;;;;;;;;;;5068936;28;20078;-68
2024/01/27 04:50:13;;;;;;;1.23;1.13;;;;;;;;;;5068038;28;20059;-65
2024/01/27 04:52:41;;;;;;;3.88;1.27;;;;;;;;;;5063874;28;20555;-61
2024/01/27 04:55:10;;;;;;;1.40;1.10;;;;;;;;;;5069818;28;20106;-62
2024/01/27 04:57:38;;;;;;;1.15;1.00;;;;;;;;;;5068514;28;20049;-61
2024/01/27 05:00:11;;;;;;;5.30;1.23;;;;;;;;;;5068850;28;20127;-70
2024/01/27 05:02:42;;;;;;;1.30;1.10;;;;;;;;;;5061587;28;20044;-65
2024/01/27 05:05:11;;;;;;;3.15;1.10;;;;;;;;;;5069226;28;20051;-61
2024/01/27 05:07:40;;;;;;;5.15;1.10;;;;;;;;;;5069073;28;20497;-65
2024/01/27 05:10:12;;;;;;;5.07;1.27;;;;;;;;;;5053179;28;20457;-68
2024/01/27 05:12:40;;;;;;;1.33;1.17;;;;;;;;;;5067032;28;20117;-64
2024/01/27 05:15:09;;;;;;;1.65;1.30;;;;;;;;;;5063415;28;20040;-67
2024/01/27 05:17:38;;;;;;;1.30;1.13;;;;;;;;;;5068533;28;20052;-60
2024/01/27 05:20:09;;;;;;;3.40;1.40;;;;;;;;;;5068740;28;20056;-69
2024/01/27 05:22:37;;;;;;;4.47;1.10;;;;;;;;;;5069482;28;20102;-62
2024/01/27 05:25:06;;;;;;;1.10;1.00;;;;;;;;;;5067256;28;20040;-65
2024/01/27 05:27:34;;;;;;;5.47;1.38;;;;;;;;;;5069081;28;20488;-65
2024/01/27 05:30:03;;;;;;;2.85;1.23;;;;;;;;;;5067473;28;20044;-60
2024/01/27 05:32:31;;;;;;;3.45;1.38;;;;;;;;;;5067266;28;20152;-60
2024/01/27 05:35:00;;;;;;;5.95;1.30;;;;;;;;;;5069000;28;20052;-61
2024/01/27 05:37:30;;;;;;;3.00;1.33;;;;;;;;;;5067574;28;20056;-69
2024/01/27 05:39:58;;;;;;;3.08;1.23;;;;;;;;;;5067026;28;20040;-61
2024/01/27 05:42:26;;;;;;;3.75;1.63;;;;;;;;;;5067401;28;20673;-64
2024/01/27 05:44:55;;;;;;;1.92;1.73;;;;;;;;;;5068871;28;20040;-61
2024/01/27 05:47:23;;;;;;;4.28;1.08;;;;;;;;;;5067752;28;20052;-65
2024/01/27 05:49:52;;;;;;;1.75;1.08;;;;;;;;;;5057848;28;20489;-66
2024/01/27 05:52:20;;;;;;;4.32;1.02;;;;;;;;;;5068512;28;20532;-62
2024/01/27 05:54:54;;;;;;;5.18;1.33;;;;;;;;;;5069204;28;20063;-62
2024/01/27 05:57:22;;;;;;;2.15;1.15;;;;;;;;;;5067968;28;20109;-61
2024/01/27 05:59:51;;;;;;;2.45;1.10;;;;;;;;;;5063551;28;20452;-61
2024/01/27 06:02:19;;;;;;;4.05;1.30;;;;;;;;;;5066992;28;20057;-63
2024/01/27 06:04:48;;;;;;;2.80;1.20;;;;;;;;;;5067762;28;20134;-63
2024/01/27 06:07:16;;;;;;;1.52;1.10;;;;;;;;;;5067696;28;20052;-61
2024/01/27 06:09:45;;;;;;;3.55;1.23;;;;;;;;;;5069319;28;20136;-61
2024/01/27 06:12:15;;;;;;;2.63;1.33;;;;;;;;;;5056512;28;20420;-61
2024/01/27 06:14:43;;;;;;;4.90;1.20;;;;;;;;;;5063568;28;20045;-66
2024/01/27 06:17:14;;;;;;;1.80;1.08;;;;;;;;;;5067210;28;20055;-64
2024/01/27 06:19:43;;;;;;;2.13;1.08;;;;;;;;;;5068360;28;20061;-60
2024/01/27 06:22:12;;;;;;;4.47;1.60;;;;;;;;;;5069384;28;20055;-61
2024/01/27 06:24:43;;;;;;;6.38;1.85;;;;;;;;;;5068649;28;20477;-61
2024/01/27 06:27:12;;;;;;;3.58;1.80;;;;;;;;;;5067729;28;20044;-64
2024/01/27 06:29:43;;;;;;;5.00;1.50;;;;;;;;;;5067899;28;20075;-67
2024/01/27 06:32:12;;;;;;;4.57;1.48;;;;;;;;;;5067406;28;20451;-59
2024/01/27 06:34:41;;;;;;;3.25;1.35;;;;;;;;;;5069473;28;20385;-60
2024/01/27 06:37:09;;;;;;;1.73;1.30;;;;;;;;;;5057622;28;20052;-63
2024/01/27 06:39:38;;;;;;;3.85;1.55;;;;;;;;;;5068666;28;20048;-67
2024/01/27 06:42:06;;;;;;;4.15;1.60;;;;;;;;;;5067780;28;20551;-63
2024/01/27 06:44:35;;;;;;;4.93;1.48;;;;;;;;;;5068866;28;20493;-62
2024/01/27 06:47:05;;;;;;;3.75;1.50;;;;;;;;;;5066877;28;20114;-61
2024/01/27 06:49:33;;;;;;;6.70;1.63;;;;;;;;;;5072186;28;20040;-64
2024/01/27 06:52:02;;;;;;;2.47;1.10;;;;;;;;;;5068932;28;20109;-70
2024/01/27 06:54:30;;;;;;;3.72;1.33;;;;;;;;;;5070820;28;20101;-66
2024/01/27 06:57:01;;;;;;;2.75;1.60;;;;;;;;;;5070250;28;20063;-61
2024/01/27 06:59:29;;;;;;;3.38;1.30;;;;;;;;;;5071942;28;20479;-60
2024/01/27 07:01:57;;;;;;;3.35;1.65;;;;;;;;;;5070537;28;20126;-61
2024/01/27 07:04:27;;;;;;;3.95;1.38;;;;;;;;;;5070822;28;20041;-65
2024/01/27 07:06:56;;;;;;;1.50;1.40;;;;;;;;;;5069885;28;20055;-62
2024/01/27 07:09:25;;;;;;;2.67;1.33;;;;;;;;;;5069825;28;20045;-61
2024/01/27 07:11:53;;;;;;;6.70;1.65;;;;;;;;;;5071170;28;20501;-62
2024/01/27 07:14:21;;;;;;;4.78;1.65;;;;;;;;;;5071395;28;20128;-61
2024/01/27 07:16:50;;;;;;;1.60;1.50;;;;;;;;;;5070679;28;20558;-64
2024/01/27 07:19:18;;;;;;;1.88;1.30;;;;;;;;;;5069440;28;20091;-63
2024/01/27 07:21:48;;;;;;;2.10;1.70;;;;;;;;;;5070234;28;20045;-71
2024/01/27 07:24:16;;;;;;;1.55;1.25;;;;;;;;;;5070562;28;20114;-65
2024/01/27 07:26:45;;;;;;;4.10;1.60;;;;;;;;;;5068684;28;20059;-60
2024/01/27 07:29:13;;;;;;;1.92;1.30;;;;;;;;;;5070949;28;20073;-64
2024/01/27 07:31:42;;;;;;;5.50;1.80;;;;;;;;;;5070600;28;20102;-63
2024/01/27 07:34:10;;;;;;;2.78;1.33;;;;;;;;;;5070112;28;20102;-66
2024/01/27 07:36:39;;;;;;;2.22;1.75;;;;;;;;;;5069875;28;20463;-64
2024/01/27 07:39:09;;;;;;;3.92;1.70;;;;;;;;;;5071164;28;20053;-62
2024/01/27 07:41:37;;;;;;;3.47;1.85;;;;;;;;;;5071125;28;20059;-62
2024/01/27 07:44:09;;;;;;;3.22;1.55;;;;;;;;;;5067279;28;20536;-61
2024/01/27 07:46:38;;;;;;;5.07;1.98;;;;;;;;;;5069187;28;20399;-74
2024/01/27 07:49:07;;;;;;;8.15;1.77;;;;;;;;;;5068428;28;20048;-61
2024/01/27 07:51:36;;;;;;;1.83;1.08;;;;;;;;;;5070925;28;20044;-61
2024/01/27 07:54:04;;;;;;;3.33;1.80;;;;;;;;;;5068633;28;20044;-66
2024/01/27 07:56:34;;;;;;;4.85;1.60;;;;;;;;;;5069155;28;20489;-63
2024/01/27 07:59:02;;;;;;;4.00;1.58;;;;;;;;;;5068811;28;20525;-64
2024/01/27 08:01:31;;;;;;;1.60;1.25;;;;;;;;;;5061905;28;20448;-62
2024/01/27 08:03:59;;;;;;;3.47;1.52;;;;;;;;;;5070879;28;20060;-62
2024/01/27 08:06:29;;;;;;;2.00;1.45;;;;;;;;;;5069655;28;20041;-62
2024/01/27 08:08:57;;;;;;;2.15;1.33;;;;;;;;;;5064531;28;20110;-66
2024/01/27 08:11:26;;;;;;;5.25;2.15;;;;;;;;;;5069897;28;20065;-64
2024/01/27 08:13:56;;;;;;;2.33;1.35;;;;;;;;;;5070791;28;20098;-64
2024/01/27 08:16:24;;;;;;;3.10;2.30;;;;;;;;;;5069817;28;20102;-60
2024/01/27 08:18:52;;;;;;;3.30;1.85;;;;;;;;;;5069723;28;20087;-61
2024/01/27 08:21:21;;;;;;;6.10;1.92;;;;;;;;;;5069669;28;20561;-65
2024/01/27 08:23:51;;;;;;;3.35;2.08;;;;;;;;;;5068752;28;20044;-63
2024/01/27 08:26:20;;;;;;;3.78;2.10;;;;;;;;;;5070065;28;20041;-60
2024/01/27 08:28:49;;;;;;;3.58;1.83;;;;;;;;;;5061641;28;20084;-63
2024/01/27 08:31:18;;;;;;;7.15;1.98;;;;;;;;;;5069834;28;20076;-65
2024/01/27 08:33:47;;;;;;;4.40;2.22;;;;;;;;;;5068802;28;20117;-67
2024/01/27 08:36:15;;;;;;;2.70;2.05;;;;;;;;;;5068213;28;20044;-59
2024/01/27 08:38:44;;;;;;;2.60;1.70;;;;;;;;;;5067736;28;20040;-60
2024/01/27 08:41:13;;;;;;;5.57;2.15;;;;;;;;;;5069574;28;20123;-60
2024/01/27 08:43:42;;;;;;;7.75;1.77;;;;;;;;;;5068608;28;20040;-65
2024/01/27 08:46:12;;;;;;;4.07;2.00;;;;;;;;;;5069298;28;20040;-65
2024/01/27 08:48:41;;;;;;;4.13;2.10;;;;;;;;;;5068658;28;20064;-64
2024/01/27 08:51:11;;;;;;;2.60;1.95;;;;;;;;;;5069821;28;20049;-64
2024/01/27 08:53:40;;;;;;;7.63;2.25;;;;;;;;;;5066456;28;20071;-65
2024/01/27 08:56:08;;;;;;;5.65;2.13;;;;;;;;;;5060686;28;20481;-64
2024/01/27 08:58:36;;;;;;;4.50;1.63;;;;;;;;;;5069061;28;20091;-63
2024/01/27 09:01:07;;;;;;;9.55;2.20;;;;;;;;;;5065165;28;20044;-66
2024/01/27 09:03:36;;;;;;;10.73;2.08;;;;;;;;;;5064730;28;20412;-60
2024/01/27 09:06:07;;;;;;;4.20;2.08;;;;;;;;;;5059931;28;20125;-60
2024/01/27 09:08:36;;;;;;;7.93;1.95;;;;;;;;;;5068165;28;20390;-61
2024/01/27 09:11:05;;;;;;;3.90;2.50;;;;;;;;;;5069373;28;20048;-67
2024/01/27 09:13:33;;;;;;;5.55;1.80;;;;;;;;;;5068122;28;20451;-65
2024/01/27 09:16:01;;;;;;;7.88;2.13;;;;;;;;;;5069716;28;20052;-60
2024/01/27 09:18:30;;;;;;;5.40;1.90;;;;;;;;;;5068777;28;20541;-60
2024/01/27 09:20:58;;;;;;;6.32;2.05;;;;;;;;;;5067217;28;20048;-63
2024/01/27 09:23:28;;;;;;;5.55;2.33;;;;;;;;;;5067189;28;20372;-63
2024/01/27 09:25:57;;;;;;;9.55;2.10;;;;;;;;;;5066016;28;20048;-67
2024/01/27 09:28:25;;;;;;;4.75;2.22;;;;;;;;;;5068521;28;20068;-62
2024/01/27 09:30:54;;;;;;;3.22;2.20;;;;;;;;;;5067715;28;20048;-61
2024/01/27 09:33:23;;;;;;;3.80;1.95;;;;;;;;;;5068251;28;20052;-60
2024/01/27 09:35:51;;;;;;;4.72;2.13;;;;;;;;;;5068026;28;20212;-61
2024/01/27 09:38:20;;;;;;;8.13;2.50;;;;;;;;;;5067813;28;20051;-63
2024/01/27 09:40:50;;;;;;;5.50;2.30;;;;;;;;;;5067689;28;20040;-60
2024/01/27 09:43:19;;;;;;;5.25;2.17;;;;;;;;;;5068386;28;20117;-59
2024/01/27 09:45:48;;;;;;;4.05;2.20;;;;;;;;;;5065483;28;20040;-63
2024/01/27 09:48:17;;;;;;;4.20;1.85;;;;;;;;;;5067962;28;20048;-65
2024/01/27 09:50:47;;;;;;;3.83;2.10;;;;;;;;;;5067985;28;20049;-64
2024/01/27 09:53:15;;;;;;;7.82;2.08;;;;;;;;;;5067369;28;20044;-61
2024/01/27 09:55:45;;;;;;;4.85;2.10;;;;;;;;;;5067430;28;20056;-60
2024/01/27 09:58:15;;;;;;;6.20;2.88;;;;;;;;;;5067977;28;20048;-64
2024/01/27 10:00:43;;;;;;;4.00;2.55;;;;;;;;;;5066007;28;20873;-63
2024/01/27 10:03:12;;;;;;;3.28;2.13;;;;;;;;;;5068134;28;20044;-64
2024/01/27 10:05:42;;;;;;;5.72;2.60;;;;;;;;;;5068747;28;20048;-66
2024/01/27 10:08:12;;;;;;;7.45;2.00;;;;;;;;;;5067695;28;20041;-62
2024/01/27 10:10:40;;;;;;;4.05;2.33;;;;;;;;;;5062730;28;20133;-63
2024/01/27 10:13:11;;;;;;;4.85;2.25;;;;;;;;;;5063884;28;20450;-63
2024/01/27 10:15:40;;;;;;;2.80;1.98;;;;;;;;;;5068454;28;20509;-61
2024/01/27 10:18:12;;;;;;;6.15;2.47;;;;;;;;;;5068261;28;20048;-60
2024/01/27 10:20:42;;;;;;;6.88;1.95;;;;;;;;;;5067774;28;20087;-65
2024/01/27 10:23:14;;;;;;;5.20;1.95;;;;;;;;;;5069337;28;20047;-63
2024/01/27 10:25:42;;;;;;;4.75;2.08;;;;;;;;;;5071769;28;20048;-60
2024/01/27 10:28:11;;;;;;;6.30;1.98;;;;;;;;;;5069267;28;20064;-66
2024/01/27 10:30:41;;;;;;;10.02;2.47;;;;;;;;;;5071239;28;20072;-68
2024/01/27 10:33:10;;;;;;;4.20;2.15;;;;;;;;;;5069905;28;20062;-60
2024/01/27 10:35:39;;;;;;;3.95;2.17;;;;;;;;;;5068935;28;20478;-63
2024/01/27 10:38:07;;;;;;;6.20;2.33;;;;;;;;;;5066723;28;20052;-61
2024/01/27 10:40:37;;;;;;;3.28;2.33;;;;;;;;;;5070306;28;20040;-59
2024/01/27 10:43:06;;;;;;;3.53;1.83;;;;;;;;;;5071325;28;20036;-59
2024/01/27 10:45:37;;;;;;;3.42;2.08;;;;;;;;;;5067991;28;20040;-60
2024/01/27 10:48:07;;;;;;;4.35;2.05;;;;;;;;;;5070780;28;20036;-62
2024/01/27 10:50:37;;;;;;;7.05;2.45;;;;;;;;;;5068595;28;20044;-59
2024/01/27 10:53:14;;;;;;;4.60;2.10;;;;;;;;;;5068403;28;20047;-60
2024/01/27 10:55:43;;;;;;;5.75;2.38;;;;;;;;;;5068390;28;20041;-59
2024/01/27 10:58:13;;;;;;;5.80;2.10;;;;;;;;;;5071647;28;20033;-61
2024/01/27 11:00:43;;;;;;;7.10;2.20;;;;;;;;;;5069370;28;20543;-64
2024/01/27 11:03:13;;;;;;;4.70;2.40;;;;;;;;;;5069665;28;20048;-61
2024/01/27 11:05:42;;;;;;;6.55;2.05;;;;;;;;;;5071454;28;20570;-61
2024/01/27 11:08:10;;;;;;;5.55;2.38;;;;;;;;;;5071346;28;20044;-60
2024/01/27 11:10:39;;;;;;;4.25;1.80;;;;;;;;;;5071225;28;20082;-65
2024/01/27 11:13:09;;;;;;;6.00;2.05;;;;;;;;;;5069688;28;20048;-60
2024/01/27 11:15:37;;;;;;;4.82;2.03;;;;;;;;;;5067101;28;20040;-64
2024/01/27 11:18:06;;;;;;;2.40;1.70;;;;;;;;;;5068311;28;20044;-61
2024/01/27 11:20:36;;;;;;;9.00;2.10;;;;;;;;;;5071279;28;20554;-59
2024/01/27 11:23:12;;;;;;;5.45;1.73;;;;;;;;;;5067484;28;20075;-63
2024/01/27 11:25:40;;;;;;;3.03;1.58;;;;;;;;;;5064840;28;20542;-60
2024/01/27 11:28:15;;;;;;;5.53;1.67;;;;;;;;;;5063227;28;20049;-60
2024/01/27 11:30:46;;;;;;;3.88;2.40;;;;;;;;;;5067563;28;20052;-62
2024/01/27 11:33:15;;;;;;;4.15;1.80;;;;;;;;;;5068850;28;20413;-59
2024/01/27 11:35:45;;;;;;;3.25;1.40;;;;;;;;;;5069040;28;20043;-60
2024/01/27 11:38:14;;;;;;;3.25;1.70;;;;;;;;;;5065091;28;20150;-62
2024/01/27 11:40:49;;;;;;;7.10;1.80;;;;;;;;;;5068531;28;20468;-59
2024/01/27 11:43:18;;;;;;;4.47;2.10;;;;;;;;;;5070579;28;20131;-59
2024/01/27 11:45:56;;;;;;;6.30;2.10;;;;;;;;;;5067414;28;20127;-62
2024/01/27 11:48:24;;;;;;;5.10;2.00;;;;;;;;;;5062228;28;20413;-61
2024/01/27 11:51:05;;;;;;;7.18;1.85;;;;;;;;;;5067772;28;20064;-64
2024/01/27 11:53:34;;;;;;;4.00;2.10;;;;;;;;;;5068109;28;20052;-60
2024/01/27 11:56:03;;;;;;;7.15;2.00;;;;;;;;;;5068942;28;20056;-59
2024/01/27 11:58:31;;;;;;;4.70;1.92;;;;;;;;;;5068595;28;20122;-61
2024/01/27 12:01:00;;;;;;;3.22;1.60;;;;;;;;;;5059573;28;20107;-60
2024/01/27 12:03:29;;;;;;;4.00;1.85;;;;;;;;;;5066900;28;20156;-59
2024/01/27 12:05:58;;;;;;;3.47;1.88;;;;;;;;;;5067136;28;20485;-60
2024/01/27 12:08:28;;;;;;;4.82;1.90;;;;;;;;;;5066921;28;20060;-60
2024/01/27 12:10:57;;;;;;;4.70;1.88;;;;;;;;;;5064189;28;20048;-63
2024/01/27 12:13:25;;;;;;;2.47;1.50;;;;;;;;;;5065713;28;20052;-60
2024/01/27 12:15:54;;;;;;;4.10;1.90;;;;;;;;;;5064520;28;20048;-59
2024/01/27 12:18:22;;;;;;;3.10;1.73;;;;;;;;;;5067771;28;20057;-58
2024/01/27 12:20:56;;;;;;;5.50;1.60;;;;;;;;;;5066791;28;20511;-61
2024/01/27 12:23:24;;;;;;;4.05;1.85;;;;;;;;;;5065215;28;20076;-66
2024/01/27 12:25:57;;;;;;;4.55;1.73;;;;;;;;;;5067525;28;20044;-60
2024/01/27 12:28:26;;;;;;;2.97;1.63;;;;;;;;;;5066096;28;20513;-59
2024/01/27 12:30:54;;;;;;;3.58;1.83;;;;;;;;;;5062713;28;20048;-59
2024/01/27 12:33:25;;;;;;;4.95;1.77;;;;;;;;;;5067371;28;20196;-60
2024/01/27 12:35:55;;;;;;;4.60;1.67;;;;;;;;;;5067167;28;20051;-62
2024/01/27 12:38:24;;;;;;;3.55;1.60;;;;;;;;;;5061605;28;20045;-61
2024/01/27 12:40:52;;;;;;;3.03;1.50;;;;;;;;;;5066630;28;20049;-61
2024/01/27 12:43:22;;;;;;;3.22;1.50;;;;;;;;;;5064655;28;20052;-59
2024/01/27 12:45:50;;;;;;;6.55;1.50;;;;;;;;;;5066362;28;20056;-60
2024/01/27 12:48:19;;;;;;;3.47;1.55;;;;;;;;;;5063924;28;20048;-60
2024/01/27 12:50:47;;;;;;;2.22;1.67;;;;;;;;;;5062726;28;20060;-62
2024/01/27 12:53:16;;;;;;;2.58;1.33;;;;;;;;;;5065647;28;20064;-62
2024/01/27 12:55:44;;;;;;;3.22;1.40;;;;;;;;;;5067472;28;20090;-60
2024/01/27 12:58:12;;;;;;;2.95;1.60;;;;;;;;;;5062432;28;20079;-61
2024/01/27 13:00:42;;;;;;;4.88;1.90;;;;;;;;;;5063355;28;20052;-60
2024/01/27 13:03:11;;;;;;;3.88;1.60;;;;;;;;;;5065800;28;20052;-61
2024/01/27 13:05:39;;;;;;;3.40;1.60;;;;;;;;;;5067548;28;20057;-62
2024/01/27 13:08:08;;;;;;;4.78;1.60;;;;;;;;;;5064794;28;20135;-60
2024/01/27 13:10:37;;;;;;;4.72;1.38;;;;;;;;;;5057768;28;20110;-63
2024/01/27 13:13:05;;;;;;;3.72;1.67;;;;;;;;;;5062831;28;20041;-63
2024/01/27 13:15:34;;;;;;;1.63;1.52;;;;;;;;;;5053082;28;20064;-65
2024/01/27 13:18:04;;;;;;;2.95;1.70;;;;;;;;;;5059362;28;20052;-64
2024/01/27 13:20:32;;;;;;;4.55;1.77;;;;;;;;;;5062468;28;20052;-64
2024/01/27 13:23:01;;;;;;;4.50;1.92;;;;;;;;;;5059617;28;20048;-65
2024/01/27 13:25:29;;;;;;;6.28;2.00;;;;;;;;;;5060645;28;20283;-67
2024/01/27 13:27:58;;;;;;;2.88;1.85;;;;;;;;;;5056562;28;20052;-73
2024/01/27 13:30:27;;;;;;;3.15;1.55;;;;;;;;;;5064095;28;20050;-62
2024/01/27 13:32:55;;;;;;;5.40;1.80;;;;;;;;;;5065801;28;20056;-65
2024/01/27 13:35:26;;;;;;;3.53;1.67;;;;;;;;;;5067832;28;20045;-62
2024/01/27 13:37:55;;;;;;;3.72;1.85;;;;;;;;;;5066633;28;20079;-67
2024/01/27 13:40:23;;;;;;;3.45;1.65;;;;;;;;;;5066890;28;20060;-66
2024/01/27 13:42:54;;;;;;;2.47;1.73;;;;;;;;;;5067001;28;20509;-62
2024/01/27 13:45:22;;;;;;;4.50;1.65;;;;;;;;;;5067347;28;20056;-61
2024/01/27 13:47:50;;;;;;;3.08;1.42;;;;;;;;;;5065507;28;20048;-61
2024/01/27 13:50:19;;;;;;;6.70;1.90;;;;;;;;;;5064260;28;20080;-66
2024/01/27 13:52:49;;;;;;;2.83;1.40;;;;;;;;;;5066167;28;20048;-67
2024/01/27 13:55:17;;;;;;;3.88;1.50;;;;;;;;;;5059334;28;20739;-62
2024/01/27 13:57:46;;;;;;;4.05;1.65;;;;;;;;;;5067374;28;20044;-63
2024/01/27 14:00:15;;;;;;;7.57;1.80;;;;;;;;;;5070028;28;20090;-62
2024/01/27 14:02:44;;;;;;;4.68;1.85;;;;;;;;;;5071354;28;20067;-65
2024/01/27 14:05:13;;;;;;;3.58;1.40;;;;;;;;;;5069741;28;20524;-65
2024/01/27 14:07:41;;;;;;;3.70;1.58;;;;;;;;;;5066840;28;20041;-64
2024/01/27 14:10:11;;;;;;;4.57;1.70;;;;;;;;;;5069312;28;20106;-62
2024/01/27 14:12:40;;;;;;;2.65;1.30;;;;;;;;;;5070588;28;20098;-61
2024/01/27 14:15:09;;;;;;;2.92;1.48;;;;;;;;;;5070209;28;20130;-65
2024/01/27 14:17:38;;;;;;;1.90;1.23;;;;;;;;;;5069746;28;20049;-64
2024/01/27 14:20:09;;;;;;;4.40;1.60;;;;;;;;;;5070199;28;20048;-61
2024/01/27 14:22:37;;;;;;;2.85;1.50;;;;;;;;;;5070746;28;20059;-69
2024/01/27 14:25:07;;;;;;;2.92;1.45;;;;;;;;;;5067443;28;20520;-62
2024/01/27 14:27:37;;;;;;;2.25;1.30;;;;;;;;;;5064508;28;21066;-64
2024/01/27 14:30:06;;;;;;;2.50;1.17;;;;;;;;;;5064615;28;20048;-64
2024/01/27 14:32:35;;;;;;;3.95;1.48;;;;;;;;;;5070769;28;20271;-61
2024/01/27 14:35:06;;;;;;;2.20;1.23;;;;;;;;;;5063725;28;20044;-64
2024/01/27 14:37:34;;;;;;;3.65;1.30;;;;;;;;;;5066349;28;20055;-65
2024/01/27 14:40:04;;;;;;;3.35;1.40;;;;;;;;;;5060013;28;20313;-62
2024/01/27 14:42:35;;;;;;;5.05;1.40;;;;;;;;;;5068304;28;20418;-64
2024/01/27 14:45:06;;;;;;;3.35;1.48;;;;;;;;;;5070788;28;20457;-61
2024/01/27 14:47:34;;;;;;;3.30;1.40;;;;;;;;;;5069710;28;20071;-63
2024/01/27 14:50:03;;;;;;;1.40;1.30;;;;;;;;;;5066120;28;20060;-64
2024/01/27 14:52:32;;;;;;;3.95;1.23;;;;;;;;;;5069453;28;20051;-62